Madisonburg, PA

4:07 PM EST on January 26, 2015 (GMT -0500)
Williamsport Rgnl | Change Station
CLOSE
Current Station
Airport
Location: Williamsport,
Elevation: 525 ft
Nearby Weather Stations
Active Advisory: Winter Weather Advisory Active Notice: Public Information Statement

Elev 525 ft 41.24 °N, 76.92 °W | Updated 13 minutes ago

Snow
Snow
25 °F
Feels Like 25 °F
N
0
Wind Variable Wind from North

Today
High -- | Low -- °F
--% Chance of Precip.
Yesterday
High -- | Low -- °F
Precip. -- in
7:25 AM 5:19 PM
Waxing Crescent, 46% visible
Pressure 29.84 in
Visibility 1.5 miles
Clouds Overcast 2500 ft
Dew Point 20 °F
Humidity 81%
Rainfall 0.21 in
Snow Depth Not available.
UV 0 out of 12
Pollen .10 out of 12
Air Quality Not available.
Flu Activity Not available.
METAR KIPT 262054Z 00000KT 1 1/2SM -SN OVC025 M04/M07 A2982 RMK AO2 SLP105 P0001 60004 T10391067 56003

More Conditions Fewer Conditions

Pressure 29.84 in
Visibility 1.5 miles
Clouds Overcast 2500 ft
Dew Point 20 °F
Humidity 81%
Rainfall 0.21 in
Snow Depth Not available.
UV 0 out of 12
Pollen .10 out of 12
Air Quality Not available.
Flu Activity Not available.
METAR KIPT 262054Z 00000KT 1 1/2SM -SN OVC025 M04/M07 A2982 RMK AO2 SLP105 P0001 60004 T10391067 56003

More Conditions Fewer Conditions

Nowcast | as of 1:03 PM EST on January 26, 2015

Periods of snow...some heavy...will be across much of central and north central Pennsylvania through 4 PM. Most of the snow will be north and west of a Harrisburg...Bedford line. The combination of cold temperatures and snow will likely result in poor travel conditions. Persons traveling this afternoon should allow extra travel time and use caution.

×

10-Day Weather Forecast

Almanac

Astronomy

Jan. 26, 2015 Rise Set
Actual Time
Civil Twilight
Nautical Twilight
Astronomical Twilight
Moon
Length of Visible Light
Length of Day
Tomorrow will be .
, % of the Moon is Illuminated

Today's Extremes

State Highs State Lows

Community

WunderPhotos

Upload Photos

1,790,361 photos uploaded!

WunderBlogs® & News

Nearby

Air Quality

  Air Quality AQ Index Pollutant
Not available.

Snow Depth

Station Depth Elevation

Earthquake Activity

City Distance Mag. Time & Date
Minimum magnitude displayed is 2.5.

Coastal Water Temperatures

Place Temperature

Nearby Weather Stations